createdAt,value
2023-01-11T00:06:23.747Z,81.76
2023-01-11T00:16:23.933Z,82.14
2023-01-11T00:26:24.083Z,82.30
2023-01-11T00:36:24.265Z,83.29
2023-01-11T00:46:24.608Z,83.67
2023-01-11T00:56:24.682Z,83.42
2023-01-11T01:06:24.983Z,84.25
2023-01-11T01:16:25.056Z,84.17
2023-01-11T01:26:25.555Z,84.27
2023-01-11T01:36:25.390Z,85.20
2023-01-11T01:46:25.638Z,84.27
2023-01-11T01:56:25.692Z,83.20
2023-01-11T02:06:25.991Z,83.11
2023-01-11T02:16:26.105Z,84.44
2023-01-11T02:26:26.218Z,83.97
2023-01-11T02:36:26.539Z,83.97
2023-01-11T02:46:26.694Z,83.41
2023-01-11T02:56:26.815Z,83.72
2023-01-11T03:06:27.159Z,84.13
2023-01-11T03:16:27.193Z,84.89
2023-01-11T03:26:29.290Z,84.54
2023-01-11T03:36:27.439Z,85.06
2023-01-11T03:46:27.951Z,86.56
2023-01-11T03:56:27.804Z,84.22
2023-01-11T04:06:28.088Z,83.85
2023-01-11T04:16:28.233Z,84.85
2023-01-11T04:26:28.331Z,85.47
2023-01-11T04:36:28.484Z,85.22
2023-01-11T04:46:28.711Z,85.22
2023-01-11T04:56:28.886Z,85.74
2023-01-11T05:06:29.150Z,86.35
2023-01-11T05:16:29.326Z,87.12
2023-01-11T05:26:29.429Z,88.04
2023-01-11T05:36:29.683Z,87.69
2023-01-11T05:46:29.793Z,88.04
2023-01-11T05:56:29.946Z,88.00
2023-01-11T06:06:30.238Z,88.27
2023-01-11T06:16:30.554Z,87.45
2023-01-11T06:26:30.537Z,86.68
2023-01-11T06:36:30.716Z,86.68
2023-01-11T06:46:30.952Z,85.86
2023-01-11T06:56:31.069Z,85.97
2023-01-11T07:06:31.304Z,86.07
2023-01-11T07:16:31.547Z,86.62
2023-01-11T07:26:31.640Z,85.76
2023-01-11T07:36:31.736Z,85.52
2023-01-11T07:46:32.094Z,85.11
2023-01-11T07:56:32.235Z,84.96
2023-01-11T08:06:32.250Z,84.61
2023-01-11T08:16:32.603Z,84.20
2023-01-11T08:26:32.843Z,83.45
2023-01-11T08:36:32.607Z,82.96
2023-01-11T08:46:32.991Z,82.24
2023-01-11T08:56:33.097Z,81.90
2023-01-11T09:06:33.089Z,81.38
2023-01-11T09:16:33.252Z,84.46
2023-01-11T09:26:33.482Z,83.72
2023-01-11T09:36:33.635Z,83.31
2023-01-11T09:46:33.913Z,82.18
2023-01-11T09:56:33.955Z,82.35
2023-01-11T10:06:34.509Z,82.45
2023-01-11T10:18:27.916Z,82.10
2023-01-11T10:26:35.493Z,81.76
2023-01-11T10:36:34.597Z,81.35
2023-01-11T10:46:34.852Z,80.97
2023-01-11T10:56:34.896Z,80.25
2023-01-11T11:06:35.301Z,80.42
2023-01-11T11:16:35.322Z,80.21
2023-01-11T11:26:35.521Z,80.79
2023-01-11T11:36:35.571Z,81.10
2023-01-11T11:46:35.808Z,84.30
2023-01-11T11:56:35.914Z,88.02
2023-01-11T12:06:36.140Z,87.82
2023-01-11T12:16:36.574Z,87.41
2023-01-11T12:26:36.514Z,86.85
2023-01-11T12:36:36.779Z,87.47
2023-01-11T12:46:36.737Z,88.49
2023-01-11T12:56:36.919Z,88.49
2023-01-11T13:06:37.309Z,89.31
2023-01-11T13:16:37.343Z,88.14
2023-01-11T13:26:37.521Z,89.61
2023-01-11T13:36:37.821Z,90.37
2023-01-11T13:46:37.877Z,92.56
2023-01-11T13:56:37.936Z,92.40
2023-01-11T14:06:38.201Z,93.26
2023-01-11T14:16:38.235Z,95.36
2023-01-11T14:26:38.550Z,94.54
2023-01-11T14:36:38.599Z,94.29
2023-01-11T14:46:38.869Z,96.79
2023-01-11T14:56:38.911Z,99.70
2023-01-11T15:06:39.163Z,99.99
2023-01-11T15:16:39.252Z,99.99
2023-01-11T15:26:39.506Z,99.08
2023-01-11T15:36:39.567Z,99.08
2023-01-11T15:46:40.044Z,98.57
2023-01-11T15:56:39.886Z,96.62
2023-01-11T16:06:40.124Z,96.82
2023-01-11T16:16:40.288Z,99.99
2023-01-11T16:26:40.486Z,99.93
2023-01-11T16:36:40.669Z,99.47
2023-01-11T16:46:40.924Z,97.92
2023-01-11T16:56:40.933Z,96.18
2023-01-11T17:06:41.223Z,94.64
2023-01-11T17:16:41.450Z,92.89
2023-01-11T17:26:41.833Z,92.58
2023-01-11T17:36:41.659Z,94.07
2023-01-11T17:46:41.885Z,94.52
2023-01-11T17:56:41.963Z,94.62
2023-01-11T18:06:42.730Z,96.52
2023-01-11T18:16:42.456Z,97.24
2023-01-11T18:26:42.644Z,97.61
2023-01-11T18:36:42.785Z,97.45
2023-01-11T18:46:42.797Z,94.68
2023-01-11T18:56:43.001Z,91.49
2023-01-11T19:06:43.644Z,92.11
2023-01-11T19:16:43.290Z,92.67
2023-01-11T19:26:43.607Z,92.16
2023-01-11T19:36:43.711Z,92.36
2023-01-11T19:46:44.210Z,92.25
2023-01-11T19:56:44.080Z,91.99
2023-01-11T20:06:44.216Z,91.89
2023-01-11T20:16:44.404Z,92.03
2023-01-11T20:26:44.698Z,93.11
2023-01-11T20:36:44.775Z,92.90
2023-01-11T20:46:47.535Z,94.08
2023-01-11T20:56:45.187Z,93.05
2023-01-11T21:06:45.469Z,92.33
2023-01-11T21:16:45.557Z,90.88
2023-01-11T21:26:46.192Z,90.82
2023-01-11T21:36:45.950Z,91.28
2023-01-11T21:46:46.323Z,91.52
2023-01-11T21:56:46.184Z,90.80
2023-01-11T22:06:46.496Z,90.39
2023-01-11T22:16:46.601Z,89.15
2023-01-11T22:26:47.167Z,89.05
2023-01-11T22:36:47.119Z,83.84
2023-01-11T22:46:47.213Z,82.19
2023-01-11T22:56:47.380Z,82.50
2023-01-11T23:06:47.626Z,80.85
2023-01-11T23:16:47.767Z,81.92
2023-01-11T23:26:47.948Z,80.13
2023-01-11T23:36:48.059Z,80.68
2023-01-11T23:46:48.289Z,78.69
2023-01-11T23:56:48.460Z,78.28
